sensor_id;sensor_type;location;lat;lon;timestamp;P1;durP1;ratioP1;P2;durP2;ratioP2
5543;SDS011;2795;47.652;13.128;2024-02-23T00:01:11;27.70;;;5.93;;
5543;SDS011;2795;47.652;13.128;2024-02-23T00:03:38;28.80;;;5.67;;
5543;SDS011;2795;47.652;13.128;2024-02-23T00:06:05;22.03;;;4.03;;
5543;SDS011;2795;47.652;13.128;2024-02-23T00:08:32;21.47;;;3.23;;
5543;SDS011;2795;47.652;13.128;2024-02-23T00:10:59;19.93;;;3.20;;
5543;SDS011;2795;47.652;13.128;2024-02-23T00:13:26;20.50;;;3.50;;
5543;SDS011;2795;47.652;13.128;2024-02-23T00:15:53;22.97;;;3.00;;
5543;SDS011;2795;47.652;13.128;2024-02-23T00:18:20;19.13;;;3.17;;
5543;SDS011;2795;47.652;13.128;2024-02-23T00:20:47;27.00;;;4.07;;
5543;SDS011;2795;47.652;13.128;2024-02-23T00:23:14;29.37;;;4.37;;
5543;SDS011;2795;47.652;13.128;2024-02-23T00:25:41;11.40;;;2.30;;
5543;SDS011;2795;47.652;13.128;2024-02-23T00:28:08;23.13;;;3.73;;
5543;SDS011;2795;47.652;13.128;2024-02-23T00:30:35;16.67;;;2.90;;
5543;SDS011;2795;47.652;13.128;2024-02-23T00:33:02;28.30;;;4.23;;
5543;SDS011;2795;47.652;13.128;2024-02-23T00:35:29;22.87;;;3.80;;
5543;SDS011;2795;47.652;13.128;2024-02-23T00:37:56;17.43;;;3.13;;
5543;SDS011;2795;47.652;13.128;2024-02-23T00:40:23;19.87;;;3.30;;
5543;SDS011;2795;47.652;13.128;2024-02-23T00:42:50;26.87;;;4.20;;
5543;SDS011;2795;47.652;13.128;2024-02-23T00:45:17;22.10;;;4.13;;
5543;SDS011;2795;47.652;13.128;2024-02-23T00:47:43;19.63;;;4.40;;
5543;SDS011;2795;47.652;13.128;2024-02-23T00:50:12;23.53;;;4.43;;
5543;SDS011;2795;47.652;13.128;2024-02-23T00:52:39;23.67;;;4.63;;
5543;SDS011;2795;47.652;13.128;2024-02-23T00:55:07;31.60;;;5.53;;
5543;SDS011;2795;47.652;13.128;2024-02-23T00:57:35;22.63;;;4.47;;
5543;SDS011;2795;47.652;13.128;2024-02-23T01:00:02;17.93;;;3.30;;
5543;SDS011;2795;47.652;13.128;2024-02-23T01:02:31;30.30;;;5.63;;
5543;SDS011;2795;47.652;13.128;2024-02-23T01:04:59;26.10;;;4.47;;
5543;SDS011;2795;47.652;13.128;2024-02-23T01:07:27;28.40;;;4.80;;
5543;SDS011;2795;47.652;13.128;2024-02-23T01:09:54;26.67;;;4.00;;
5543;SDS011;2795;47.652;13.128;2024-02-23T01:12:21;12.07;;;2.50;;
5543;SDS011;2795;47.652;13.128;2024-02-23T01:14:48;27.07;;;4.30;;
5543;SDS011;2795;47.652;13.128;2024-02-23T01:17:15;23.83;;;3.70;;
5543;SDS011;2795;47.652;13.128;2024-02-23T01:19:43;31.97;;;4.53;;
5543;SDS011;2795;47.652;13.128;2024-02-23T01:22:10;23.27;;;3.67;;
5543;SDS011;2795;47.652;13.128;2024-02-23T01:24:37;24.07;;;3.67;;
5543;SDS011;2795;47.652;13.128;2024-02-23T01:27:03;18.63;;;3.03;;
5543;SDS011;2795;47.652;13.128;2024-02-23T01:29:30;34.37;;;4.70;;
5543;SDS011;2795;47.652;13.128;2024-02-23T01:31:57;15.83;;;2.63;;
5543;SDS011;2795;47.652;13.128;2024-02-23T01:34:25;22.30;;;3.33;;
5543;SDS011;2795;47.652;13.128;2024-02-23T01:36:52;26.37;;;3.90;;
5543;SDS011;2795;47.652;13.128;2024-02-23T01:39:18;14.70;;;2.53;;
5543;SDS011;2795;47.652;13.128;2024-02-23T01:41:45;20.43;;;3.20;;
5543;SDS011;2795;47.652;13.128;2024-02-23T01:44:12;28.67;;;4.27;;
5543;SDS011;2795;47.652;13.128;2024-02-23T01:46:39;20.60;;;3.27;;
5543;SDS011;2795;47.652;13.128;2024-02-23T01:49:06;28.73;;;4.17;;
5543;SDS011;2795;47.652;13.128;2024-02-23T01:51:34;23.37;;;3.67;;
5543;SDS011;2795;47.652;13.128;2024-02-23T01:54:01;15.77;;;2.60;;
5543;SDS011;2795;47.652;13.128;2024-02-23T01:56:28;25.00;;;3.97;;
5543;SDS011;2795;47.652;13.128;2024-02-23T01:58:55;18.83;;;3.10;;
5543;SDS011;2795;47.652;13.128;2024-02-23T02:01:22;21.83;;;3.40;;
5543;SDS011;2795;47.652;13.128;2024-02-23T02:03:49;31.77;;;8.80;;
5543;SDS011;2795;47.652;13.128;2024-02-23T02:06:16;24.67;;;4.30;;
5543;SDS011;2795;47.652;13.128;2024-02-23T02:08:43;16.20;;;2.90;;
5543;SDS011;2795;47.652;13.128;2024-02-23T02:11:10;27.73;;;4.10;;
5543;SDS011;2795;47.652;13.128;2024-02-23T02:13:36;19.07;;;3.00;;
5543;SDS011;2795;47.652;13.128;2024-02-23T02:16:03;24.80;;;3.80;;
5543;SDS011;2795;47.652;13.128;2024-02-23T02:18:30;28.97;;;4.30;;
5543;SDS011;2795;47.652;13.128;2024-02-23T02:20:57;23.03;;;3.97;;
5543;SDS011;2795;47.652;13.128;2024-02-23T02:23:24;29.13;;;4.10;;
5543;SDS011;2795;47.652;13.128;2024-02-23T02:25:56;19.40;;;2.97;;
5543;SDS011;2795;47.652;13.128;2024-02-23T02:28:24;30.53;;;4.17;;
5543;SDS011;2795;47.652;13.128;2024-02-23T02:30:52;24.80;;;3.70;;
5543;SDS011;2795;47.652;13.128;2024-02-23T02:33:22;22.73;;;3.43;;
5543;SDS011;2795;47.652;13.128;2024-02-23T02:35:49;25.33;;;3.80;;
5543;SDS011;2795;47.652;13.128;2024-02-23T02:38:16;24.63;;;3.57;;
5543;SDS011;2795;47.652;13.128;2024-02-23T02:40:43;17.60;;;2.70;;
5543;SDS011;2795;47.652;13.128;2024-02-23T02:43:10;28.57;;;4.20;;
5543;SDS011;2795;47.652;13.128;2024-02-23T02:45:37;22.10;;;3.23;;
5543;SDS011;2795;47.652;13.128;2024-02-23T02:48:04;18.27;;;2.93;;
5543;SDS011;2795;47.652;13.128;2024-02-23T02:50:31;27.53;;;3.77;;
5543;SDS011;2795;47.652;13.128;2024-02-23T02:52:58;14.70;;;2.50;;
5543;SDS011;2795;47.652;13.128;2024-02-23T02:55:25;15.30;;;2.60;;
5543;SDS011;2795;47.652;13.128;2024-02-23T02:57:51;26.63;;;3.60;;
5543;SDS011;2795;47.652;13.128;2024-02-23T03:00:18;13.63;;;2.40;;
5543;SDS011;2795;47.652;13.128;2024-02-23T03:02:45;14.10;;;2.53;;
5543;SDS011;2795;47.652;13.128;2024-02-23T03:05:11;32.30;;;4.50;;
5543;SDS011;2795;47.652;13.128;2024-02-23T03:07:38;9.90;;;2.00;;
5543;SDS011;2795;47.652;13.128;2024-02-23T03:10:05;12.30;;;2.40;;
5543;SDS011;2795;47.652;13.128;2024-02-23T03:12:32;15.10;;;3.10;;
5543;SDS011;2795;47.652;13.128;2024-02-23T03:14:59;20.10;;;3.70;;
5543;SDS011;2795;47.652;13.128;2024-02-23T03:17:26;24.47;;;4.17;;
5543;SDS011;2795;47.652;13.128;2024-02-23T03:19:53;17.43;;;2.93;;
5543;SDS011;2795;47.652;13.128;2024-02-23T03:22:20;24.00;;;3.63;;
5543;SDS011;2795;47.652;13.128;2024-02-23T03:24:46;16.43;;;2.97;;
5543;SDS011;2795;47.652;13.128;2024-02-23T03:27:13;17.10;;;3.03;;
5543;SDS011;2795;47.652;13.128;2024-02-23T03:29:40;13.77;;;2.57;;
5543;SDS011;2795;47.652;13.128;2024-02-23T03:32:07;43.40;;;5.73;;
5543;SDS011;2795;47.652;13.128;2024-02-23T03:34:35;30.17;;;4.20;;
5543;SDS011;2795;47.652;13.128;2024-02-23T03:37:02;11.10;;;2.20;;
5543;SDS011;2795;47.652;13.128;2024-02-23T03:39:29;21.63;;;3.47;;
5543;SDS011;2795;47.652;13.128;2024-02-23T03:41:55;13.87;;;2.57;;
5543;SDS011;2795;47.652;13.128;2024-02-23T03:44:22;21.43;;;3.47;;
5543;SDS011;2795;47.652;13.128;2024-02-23T03:46:50;19.43;;;3.17;;
5543;SDS011;2795;47.652;13.128;2024-02-23T03:49:16;24.10;;;3.93;;
5543;SDS011;2795;47.652;13.128;2024-02-23T03:51:43;25.93;;;4.10;;
5543;SDS011;2795;47.652;13.128;2024-02-23T03:54:10;27.97;;;4.10;;
5543;SDS011;2795;47.652;13.128;2024-02-23T03:56:38;18.70;;;3.17;;
5543;SDS011;2795;47.652;13.128;2024-02-23T03:59:06;13.63;;;2.20;;
5543;SDS011;2795;47.652;13.128;2024-02-23T04:01:36;19.37;;;3.10;;
5543;SDS011;2795;47.652;13.128;2024-02-23T04:04:04;24.13;;;3.60;;
5543;SDS011;2795;47.652;13.128;2024-02-23T04:06:31;25.43;;;3.70;;
5543;SDS011;2795;47.652;13.128;2024-02-23T04:08:58;16.43;;;2.93;;
5543;SDS011;2795;47.652;13.128;2024-02-23T04:11:25;11.73;;;2.30;;
5543;SDS011;2795;47.652;13.128;2024-02-23T04:13:52;25.60;;;3.70;;
5543;SDS011;2795;47.652;13.128;2024-02-23T04:16:22;15.83;;;2.67;;
5543;SDS011;2795;47.652;13.128;2024-02-23T04:18:50;15.13;;;2.50;;
5543;SDS011;2795;47.652;13.128;2024-02-23T04:21:17;36.13;;;4.10;;
5543;SDS011;2795;47.652;13.128;2024-02-23T04:23:44;28.30;;;4.10;;
5543;SDS011;2795;47.652;13.128;2024-02-23T04:26:11;43.60;;;5.73;;
5543;SDS011;2795;47.652;13.128;2024-02-23T04:28:38;22.67;;;3.20;;
5543;SDS011;2795;47.652;13.128;2024-02-23T04:31:05;12.47;;;2.47;;
5543;SDS011;2795;47.652;13.128;2024-02-23T04:33:32;16.03;;;2.77;;
5543;SDS011;2795;47.652;13.128;2024-02-23T04:35:59;14.17;;;2.47;;
5543;SDS011;2795;47.652;13.128;2024-02-23T04:38:26;13.97;;;2.50;;
5543;SDS011;2795;47.652;13.128;2024-02-23T04:40:53;16.77;;;2.93;;
5543;SDS011;2795;47.652;13.128;2024-02-23T04:43:19;18.77;;;3.00;;
5543;SDS011;2795;47.652;13.128;2024-02-23T04:45:46;16.60;;;2.70;;
5543;SDS011;2795;47.652;13.128;2024-02-23T04:48:12;17.53;;;3.10;;
5543;SDS011;2795;47.652;13.128;2024-02-23T04:50:39;20.93;;;3.47;;
5543;SDS011;2795;47.652;13.128;2024-02-23T04:53:06;16.93;;;2.97;;
5543;SDS011;2795;47.652;13.128;2024-02-23T04:55:34;28.30;;;4.10;;
5543;SDS011;2795;47.652;13.128;2024-02-23T04:58:01;25.83;;;4.07;;
5543;SDS011;2795;47.652;13.128;2024-02-23T05:00:27;35.60;;;4.93;;
5543;SDS011;2795;47.652;13.128;2024-02-23T05:02:59;23.67;;;3.40;;
5543;SDS011;2795;47.652;13.128;2024-02-23T05:05:30;26.37;;;3.63;;
5543;SDS011;2795;47.652;13.128;2024-02-23T05:07:58;13.83;;;2.23;;
5543;SDS011;2795;47.652;13.128;2024-02-23T05:10:26;21.23;;;3.50;;
5543;SDS011;2795;47.652;13.128;2024-02-23T05:12:53;17.93;;;3.20;;
5543;SDS011;2795;47.652;13.128;2024-02-23T05:15:19;26.80;;;3.80;;
5543;SDS011;2795;47.652;13.128;2024-02-23T05:17:47;25.30;;;3.73;;
5543;SDS011;2795;47.652;13.128;2024-02-23T05:20:14;23.73;;;3.77;;
5543;SDS011;2795;47.652;13.128;2024-02-23T05:22:41;21.23;;;3.40;;
5543;SDS011;2795;47.652;13.128;2024-02-23T05:25:08;33.07;;;4.67;;
5543;SDS011;2795;47.652;13.128;2024-02-23T05:27:35;20.70;;;3.60;;
5543;SDS011;2795;47.652;13.128;2024-02-23T05:30:02;21.33;;;3.70;;
5543;SDS011;2795;47.652;13.128;2024-02-23T05:32:29;27.03;;;4.27;;
5543;SDS011;2795;47.652;13.128;2024-02-23T05:34:56;18.33;;;3.37;;
5543;SDS011;2795;47.652;13.128;2024-02-23T05:37:23;21.10;;;3.57;;
5543;SDS011;2795;47.652;13.128;2024-02-23T05:39:50;19.17;;;3.37;;
5543;SDS011;2795;47.652;13.128;2024-02-23T05:42:17;26.47;;;4.80;;
5543;SDS011;2795;47.652;13.128;2024-02-23T05:44:44;23.83;;;4.00;;
5543;SDS011;2795;47.652;13.128;2024-02-23T05:47:11;29.70;;;4.37;;
5543;SDS011;2795;47.652;13.128;2024-02-23T05:49:40;17.77;;;3.03;;
5543;SDS011;2795;47.652;13.128;2024-02-23T05:52:07;23.40;;;3.10;;
5543;SDS011;2795;47.652;13.128;2024-02-23T05:54:34;29.10;;;4.27;;
5543;SDS011;2795;47.652;13.128;2024-02-23T05:57:01;11.87;;;2.27;;
5543;SDS011;2795;47.652;13.128;2024-02-23T05:59:29;29.13;;;3.87;;
5543;SDS011;2795;47.652;13.128;2024-02-23T06:01:55;27.60;;;6.70;;
5543;SDS011;2795;47.652;13.128;2024-02-23T06:04:25;29.03;;;9.63;;
5543;SDS011;2795;47.652;13.128;2024-02-23T06:06:53;20.97;;;3.90;;
5543;SDS011;2795;47.652;13.128;2024-02-23T06:09:20;24.17;;;3.80;;
5543;SDS011;2795;47.652;13.128;2024-02-23T06:11:47;24.27;;;3.90;;
5543;SDS011;2795;47.652;13.128;2024-02-23T06:14:14;23.77;;;4.17;;
5543;SDS011;2795;47.652;13.128;2024-02-23T06:16:41;21.93;;;3.77;;
5543;SDS011;2795;47.652;13.128;2024-02-23T06:19:08;31.83;;;4.80;;
5543;SDS011;2795;47.652;13.128;2024-02-23T06:21:35;31.10;;;5.13;;
5543;SDS011;2795;47.652;13.128;2024-02-23T06:24:01;20.43;;;3.90;;
5543;SDS011;2795;47.652;13.128;2024-02-23T06:26:29;30.67;;;4.73;;
5543;SDS011;2795;47.652;13.128;2024-02-23T06:28:56;17.97;;;3.80;;
5543;SDS011;2795;47.652;13.128;2024-02-23T06:31:23;29.30;;;5.47;;
5543;SDS011;2795;47.652;13.128;2024-02-23T06:33:50;18.83;;;4.60;;
5543;SDS011;2795;47.652;13.128;2024-02-23T06:36:18;23.73;;;4.97;;
5543;SDS011;2795;47.652;13.128;2024-02-23T06:38:45;34.03;;;6.17;;
5543;SDS011;2795;47.652;13.128;2024-02-23T06:41:12;33.77;;;5.37;;
5543;SDS011;2795;47.652;13.128;2024-02-23T06:43:39;23.93;;;4.30;;
5543;SDS011;2795;47.652;13.128;2024-02-23T06:46:06;20.93;;;4.10;;
5543;SDS011;2795;47.652;13.128;2024-02-23T06:48:34;22.63;;;3.43;;
5543;SDS011;2795;47.652;13.128;2024-02-23T06:51:05;32.63;;;5.40;;
5543;SDS011;2795;47.652;13.128;2024-02-23T06:53:36;21.07;;;4.07;;
5543;SDS011;2795;47.652;13.128;2024-02-23T06:56:04;30.83;;;5.47;;
5543;SDS011;2795;47.652;13.128;2024-02-23T06:58:31;35.53;;;5.67;;
5543;SDS011;2795;47.652;13.128;2024-02-23T07:00:58;23.67;;;4.30;;
5543;SDS011;2795;47.652;13.128;2024-02-23T07:03:26;19.83;;;4.07;;
5543;SDS011;2795;47.652;13.128;2024-02-23T07:05:53;23.17;;;4.70;;
5543;SDS011;2795;47.652;13.128;2024-02-23T07:08:20;39.80;;;6.73;;
5543;SDS011;2795;47.652;13.128;2024-02-23T07:10:47;29.30;;;5.73;;
5543;SDS011;2795;47.652;13.128;2024-02-23T07:13:14;15.70;;;4.20;;
5543;SDS011;2795;47.652;13.128;2024-02-23T07:15:40;26.87;;;5.33;;
5543;SDS011;2795;47.652;13.128;2024-02-23T07:18:07;23.67;;;4.57;;
5543;SDS011;2795;47.652;13.128;2024-02-23T07:20:35;28.27;;;4.70;;
5543;SDS011;2795;47.652;13.128;2024-02-23T07:23:03;26.57;;;4.43;;
5543;SDS011;2795;47.652;13.128;2024-02-23T07:25:30;21.60;;;3.87;;
5543;SDS011;2795;47.652;13.128;2024-02-23T07:27:57;23.53;;;4.37;;
5543;SDS011;2795;47.652;13.128;2024-02-23T07:30:24;30.07;;;5.10;;
5543;SDS011;2795;47.652;13.128;2024-02-23T07:32:51;24.20;;;4.10;;
5543;SDS011;2795;47.652;13.128;2024-02-23T07:35:19;19.07;;;3.13;;
5543;SDS011;2795;47.652;13.128;2024-02-23T07:37:46;21.73;;;3.67;;
5543;SDS011;2795;47.652;13.128;2024-02-23T07:40:13;23.47;;;3.93;;
5543;SDS011;2795;47.652;13.128;2024-02-23T07:42:45;23.43;;;4.50;;
5543;SDS011;2795;47.652;13.128;2024-02-23T07:45:12;32.47;;;5.80;;
5543;SDS011;2795;47.652;13.128;2024-02-23T07:47:39;15.67;;;3.93;;
5543;SDS011;2795;47.652;13.128;2024-02-23T07:50:06;20.77;;;4.33;;
5543;SDS011;2795;47.652;13.128;2024-02-23T07:52:33;21.07;;;4.60;;
5543;SDS011;2795;47.652;13.128;2024-02-23T07:55:00;36.90;;;6.30;;
5543;SDS011;2795;47.652;13.128;2024-02-23T07:57:29;29.17;;;5.00;;
5543;SDS011;2795;47.652;13.128;2024-02-23T07:59:57;23.27;;;4.30;;
5543;SDS011;2795;47.652;13.128;2024-02-23T08:02:24;27.60;;;4.53;;
5543;SDS011;2795;47.652;13.128;2024-02-23T08:04:51;22.37;;;4.27;;
5543;SDS011;2795;47.652;13.128;2024-02-23T08:07:18;15.17;;;3.50;;
5543;SDS011;2795;47.652;13.128;2024-02-23T08:09:45;19.67;;;3.80;;
5543;SDS011;2795;47.652;13.128;2024-02-23T08:12:12;43.73;;;6.03;;
5543;SDS011;2795;47.652;13.128;2024-02-23T08:14:40;35.40;;;5.33;;
5543;SDS011;2795;47.652;13.128;2024-02-23T08:17:08;25.20;;;4.00;;
5543;SDS011;2795;47.652;13.128;2024-02-23T08:19:35;25.13;;;4.27;;
5543;SDS011;2795;47.652;13.128;2024-02-23T08:22:02;19.83;;;3.63;;
5543;SDS011;2795;47.652;13.128;2024-02-23T08:24:28;37.77;;;5.77;;
5543;SDS011;2795;47.652;13.128;2024-02-23T08:26:55;21.77;;;4.10;;
5543;SDS011;2795;47.652;13.128;2024-02-23T08:29:22;20.93;;;4.07;;
5543;SDS011;2795;47.652;13.128;2024-02-23T08:31:49;38.80;;;6.90;;
5543;SDS011;2795;47.652;13.128;2024-02-23T08:34:17;22.23;;;4.83;;
5543;SDS011;2795;47.652;13.128;2024-02-23T08:36:44;25.07;;;4.70;;
5543;SDS011;2795;47.652;13.128;2024-02-23T08:39:11;16.83;;;3.40;;
5543;SDS011;2795;47.652;13.128;2024-02-23T08:41:37;25.87;;;5.50;;
5543;SDS011;2795;47.652;13.128;2024-02-23T08:44:05;22.00;;;5.57;;
5543;SDS011;2795;47.652;13.128;2024-02-23T08:46:32;31.73;;;5.47;;
5543;SDS011;2795;47.652;13.128;2024-02-23T08:48:59;18.77;;;4.20;;
5543;SDS011;2795;47.652;13.128;2024-02-23T08:51:26;39.10;;;11.90;;
5543;SDS011;2795;47.652;13.128;2024-02-23T08:53:52;45.77;;;14.07;;
5543;SDS011;2795;47.652;13.128;2024-02-23T08:56:22;33.23;;;11.93;;
5543;SDS011;2795;47.652;13.128;2024-02-23T08:58:49;36.47;;;6.10;;
5543;SDS011;2795;47.652;13.128;2024-02-23T09:01:16;29.20;;;4.97;;
5543;SDS011;2795;47.652;13.128;2024-02-23T09:03:43;34.43;;;10.20;;
5543;SDS011;2795;47.652;13.128;2024-02-23T09:06:10;25.83;;;4.03;;
5543;SDS011;2795;47.652;13.128;2024-02-23T09:08:37;29.60;;;6.17;;
5543;SDS011;2795;47.652;13.128;2024-02-23T09:11:04;26.90;;;4.63;;
5543;SDS011;2795;47.652;13.128;2024-02-23T09:13:31;28.47;;;4.50;;
5543;SDS011;2795;47.652;13.128;2024-02-23T09:15:58;24.67;;;3.80;;
5543;SDS011;2795;47.652;13.128;2024-02-23T09:18:25;30.50;;;3.67;;
5543;SDS011;2795;47.652;13.128;2024-02-23T09:20:52;32.53;;;6.00;;
5543;SDS011;2795;47.652;13.128;2024-02-23T09:23:19;18.13;;;3.10;;
5543;SDS011;2795;47.652;13.128;2024-02-23T09:25:45;19.27;;;3.43;;
5543;SDS011;2795;47.652;13.128;2024-02-23T09:28:12;32.03;;;4.90;;
5543;SDS011;2795;47.652;13.128;2024-02-23T09:30:40;34.43;;;8.17;;
5543;SDS011;2795;47.652;13.128;2024-02-23T09:33:07;26.43;;;3.80;;
5543;SDS011;2795;47.652;13.128;2024-02-23T09:35:35;19.97;;;3.23;;
5543;SDS011;2795;47.652;13.128;2024-02-23T09:38:02;25.93;;;3.97;;
5543;SDS011;2795;47.652;13.128;2024-02-23T09:40:29;34.93;;;8.30;;
5543;SDS011;2795;47.652;13.128;2024-02-23T09:42:57;18.93;;;4.30;;
5543;SDS011;2795;47.652;13.128;2024-02-23T09:45:29;31.20;;;5.53;;
5543;SDS011;2795;47.652;13.128;2024-02-23T09:47:57;28.23;;;5.63;;
5543;SDS011;2795;47.652;13.128;2024-02-23T09:50:24;37.37;;;6.43;;
5543;SDS011;2795;47.652;13.128;2024-02-23T09:52:52;40.50;;;6.93;;
5543;SDS011;2795;47.652;13.128;2024-02-23T09:55:21;24.97;;;5.00;;
5543;SDS011;2795;47.652;13.128;2024-02-23T09:57:51;21.77;;;3.87;;
5543;SDS011;2795;47.652;13.128;2024-02-23T10:00:21;31.03;;;5.77;;
5543;SDS011;2795;47.652;13.128;2024-02-23T10:02:50;34.60;;;6.80;;
5543;SDS011;2795;47.652;13.128;2024-02-23T10:05:17;29.70;;;5.23;;
5543;SDS011;2795;47.652;13.128;2024-02-23T10:07:44;25.63;;;3.90;;
5543;SDS011;2795;47.652;13.128;2024-02-23T10:10:12;30.37;;;4.20;;
5543;SDS011;2795;47.652;13.128;2024-02-23T10:12:39;14.73;;;3.20;;
5543;SDS011;2795;47.652;13.128;2024-02-23T10:15:06;17.27;;;3.23;;
5543;SDS011;2795;47.652;13.128;2024-02-23T10:17:33;21.83;;;3.70;;
5543;SDS011;2795;47.652;13.128;2024-02-23T10:20:02;19.87;;;4.37;;
5543;SDS011;2795;47.652;13.128;2024-02-23T10:22:31;19.90;;;3.47;;
5543;SDS011;2795;47.652;13.128;2024-02-23T10:24:58;18.97;;;4.33;;
5543;SDS011;2795;47.652;13.128;2024-02-23T10:27:26;22.30;;;4.97;;
5543;SDS011;2795;47.652;13.128;2024-02-23T10:29:52;25.23;;;4.10;;
5543;SDS011;2795;47.652;13.128;2024-02-23T10:32:20;37.17;;;5.67;;
5543;SDS011;2795;47.652;13.128;2024-02-23T10:34:50;33.10;;;10.33;;
5543;SDS011;2795;47.652;13.128;2024-02-23T10:37:20;14.83;;;2.77;;
5543;SDS011;2795;47.652;13.128;2024-02-23T10:39:51;15.10;;;3.60;;
5543;SDS011;2795;47.652;13.128;2024-02-23T10:42:20;28.90;;;4.40;;
5543;SDS011;2795;47.652;13.128;2024-02-23T10:44:51;17.83;;;3.40;;
5543;SDS011;2795;47.652;13.128;2024-02-23T10:47:19;16.00;;;3.90;;
5543;SDS011;2795;47.652;13.128;2024-02-23T10:49:46;13.60;;;2.83;;
5543;SDS011;2795;47.652;13.128;2024-02-23T10:52:14;19.60;;;3.67;;
5543;SDS011;2795;47.652;13.128;2024-02-23T10:54:41;19.30;;;3.43;;
5543;SDS011;2795;47.652;13.128;2024-02-23T10:57:08;19.43;;;3.47;;
5543;SDS011;2795;47.652;13.128;2024-02-23T10:59:35;20.93;;;3.93;;
5543;SDS011;2795;47.652;13.128;2024-02-23T11:02:02;19.70;;;3.20;;
5543;SDS011;2795;47.652;13.128;2024-02-23T11:04:30;19.87;;;3.57;;
5543;SDS011;2795;47.652;13.128;2024-02-23T11:06:57;23.03;;;4.20;;
5543;SDS011;2795;47.652;13.128;2024-02-23T11:09:25;38.17;;;7.20;;
5543;SDS011;2795;47.652;13.128;2024-02-23T11:11:56;30.03;;;4.93;;
5543;SDS011;2795;47.652;13.128;2024-02-23T11:14:31;26.63;;;4.50;;
5543;SDS011;2795;47.652;13.128;2024-02-23T11:16:59;18.37;;;3.93;;
5543;SDS011;2795;47.652;13.128;2024-02-23T11:19:33;15.53;;;2.83;;
5543;SDS011;2795;47.652;13.128;2024-02-23T11:22:04;34.50;;;5.50;;
5543;SDS011;2795;47.652;13.128;2024-02-23T11:24:42;20.53;;;3.53;;
5543;SDS011;2795;47.652;13.128;2024-02-23T11:27:14;22.47;;;3.97;;
5543;SDS011;2795;47.652;13.128;2024-02-23T11:29:47;34.73;;;5.23;;
5543;SDS011;2795;47.652;13.128;2024-02-23T11:32:17;14.20;;;2.73;;
5543;SDS011;2795;47.652;13.128;2024-02-23T11:34:56;33.53;;;4.80;;
5543;SDS011;2795;47.652;13.128;2024-02-23T11:37:24;31.87;;;4.80;;
5543;SDS011;2795;47.652;13.128;2024-02-23T11:39:54;12.37;;;2.53;;
5543;SDS011;2795;47.652;13.128;2024-02-23T11:42:23;25.87;;;3.90;;
5543;SDS011;2795;47.652;13.128;2024-02-23T11:44:50;16.23;;;3.00;;
5543;SDS011;2795;47.652;13.128;2024-02-23T11:47:16;18.70;;;3.40;;
5543;SDS011;2795;47.652;13.128;2024-02-23T11:49:43;28.43;;;4.50;;
5543;SDS011;2795;47.652;13.128;2024-02-23T11:52:10;21.83;;;3.63;;
5543;SDS011;2795;47.652;13.128;2024-02-23T11:54:38;23.23;;;3.90;;
5543;SDS011;2795;47.652;13.128;2024-02-23T11:57:05;20.13;;;3.50;;
5543;SDS011;2795;47.652;13.128;2024-02-23T11:59:32;30.53;;;4.70;;
5543;SDS011;2795;47.652;13.128;2024-02-23T12:01:59;16.03;;;3.03;;
5543;SDS011;2795;47.652;13.128;2024-02-23T12:04:29;31.27;;;5.33;;
5543;SDS011;2795;47.652;13.128;2024-02-23T12:06:56;26.70;;;4.00;;
5543;SDS011;2795;47.652;13.128;2024-02-23T12:09:23;20.93;;;3.93;;
5543;SDS011;2795;47.652;13.128;2024-02-23T12:11:49;24.83;;;4.17;;
5543;SDS011;2795;47.652;13.128;2024-02-23T12:14:16;24.20;;;4.10;;
5543;SDS011;2795;47.652;13.128;2024-02-23T12:16:44;26.17;;;4.20;;
5543;SDS011;2795;47.652;13.128;2024-02-23T12:19:11;14.37;;;3.00;;
5543;SDS011;2795;47.652;13.128;2024-02-23T12:21:38;21.63;;;3.80;;
5543;SDS011;2795;47.652;13.128;2024-02-23T12:24:05;24.70;;;4.17;;
5543;SDS011;2795;47.652;13.128;2024-02-23T12:26:35;13.77;;;2.80;;
5543;SDS011;2795;47.652;13.128;2024-02-23T12:29:03;29.67;;;5.20;;
5543;SDS011;2795;47.652;13.128;2024-02-23T12:31:31;23.20;;;3.87;;
5543;SDS011;2795;47.652;13.128;2024-02-23T12:33:58;21.03;;;3.77;;
5543;SDS011;2795;47.652;13.128;2024-02-23T12:36:25;21.60;;;4.00;;
5543;SDS011;2795;47.652;13.128;2024-02-23T12:38:52;34.47;;;5.27;;
5543;SDS011;2795;47.652;13.128;2024-02-23T12:41:18;20.90;;;3.83;;
5543;SDS011;2795;47.652;13.128;2024-02-23T12:43:45;15.43;;;3.40;;
5543;SDS011;2795;47.652;13.128;2024-02-23T12:46:14;28.47;;;6.27;;
5543;SDS011;2795;47.652;13.128;2024-02-23T12:48:40;31.07;;;6.23;;
5543;SDS011;2795;47.652;13.128;2024-02-23T12:51:09;23.23;;;5.50;;
5543;SDS011;2795;47.652;13.128;2024-02-23T12:53:37;39.73;;;7.03;;
5543;SDS011;2795;47.652;13.128;2024-02-23T12:56:08;35.70;;;6.97;;
5543;SDS011;2795;47.652;13.128;2024-02-23T12:58:40;36.40;;;7.60;;
5543;SDS011;2795;47.652;13.128;2024-02-23T13:01:08;30.03;;;8.30;;
5543;SDS011;2795;47.652;13.128;2024-02-23T13:03:37;32.20;;;8.60;;
5543;SDS011;2795;47.652;13.128;2024-02-23T13:06:05;30.30;;;9.00;;
5543;SDS011;2795;47.652;13.128;2024-02-23T13:08:32;34.57;;;9.70;;
5543;SDS011;2795;47.652;13.128;2024-02-23T13:10:59;33.10;;;9.50;;
5543;SDS011;2795;47.652;13.128;2024-02-23T13:13:26;32.60;;;9.03;;
5543;SDS011;2795;47.652;13.128;2024-02-23T13:15:54;40.93;;;9.90;;
5543;SDS011;2795;47.652;13.128;2024-02-23T13:18:21;42.27;;;10.80;;
5543;SDS011;2795;47.652;13.128;2024-02-23T13:20:49;35.03;;;8.80;;
5543;SDS011;2795;47.652;13.128;2024-02-23T13:23:16;34.37;;;9.70;;
5543;SDS011;2795;47.652;13.128;2024-02-23T13:25:43;31.33;;;8.60;;
5543;SDS011;2795;47.652;13.128;2024-02-23T13:28:11;28.43;;;8.10;;
5543;SDS011;2795;47.652;13.128;2024-02-23T13:30:37;26.50;;;8.77;;
5543;SDS011;2795;47.652;13.128;2024-02-23T13:33:05;28.47;;;9.33;;
5543;SDS011;2795;47.652;13.128;2024-02-23T13:35:37;33.73;;;10.20;;
5543;SDS011;2795;47.652;13.128;2024-02-23T13:38:05;27.77;;;9.27;;
5543;SDS011;2795;47.652;13.128;2024-02-23T13:40:33;30.37;;;8.33;;
5543;SDS011;2795;47.652;13.128;2024-02-23T13:43:00;23.07;;;7.53;;
5543;SDS011;2795;47.652;13.128;2024-02-23T13:45:27;42.33;;;10.20;;
5543;SDS011;2795;47.652;13.128;2024-02-23T13:48:00;36.00;;;9.50;;
5543;SDS011;2795;47.652;13.128;2024-02-23T13:50:29;33.10;;;8.73;;
5543;SDS011;2795;47.652;13.128;2024-02-23T13:52:56;31.23;;;8.00;;
5543;SDS011;2795;47.652;13.128;2024-02-23T13:55:23;22.90;;;8.13;;
5543;SDS011;2795;47.652;13.128;2024-02-23T13:57:50;31.70;;;8.63;;
5543;SDS011;2795;47.652;13.128;2024-02-23T14:00:17;31.00;;;8.43;;
5543;SDS011;2795;47.652;13.128;2024-02-23T14:02:45;24.73;;;8.17;;
5543;SDS011;2795;47.652;13.128;2024-02-23T14:05:14;33.60;;;9.13;;
5543;SDS011;2795;47.652;13.128;2024-02-23T14:07:42;30.03;;;8.77;;
5543;SDS011;2795;47.652;13.128;2024-02-23T14:10:08;25.30;;;7.60;;
5543;SDS011;2795;47.652;13.128;2024-02-23T14:12:35;29.87;;;8.03;;
5543;SDS011;2795;47.652;13.128;2024-02-23T14:15:02;22.07;;;7.10;;
5543;SDS011;2795;47.652;13.128;2024-02-23T14:17:29;29.03;;;8.23;;
5543;SDS011;2795;47.652;13.128;2024-02-23T14:19:56;26.93;;;7.80;;
5543;SDS011;2795;47.652;13.128;2024-02-23T14:22:23;25.80;;;7.30;;
5543;SDS011;2795;47.652;13.128;2024-02-23T14:24:50;26.00;;;7.60;;
5543;SDS011;2795;47.652;13.128;2024-02-23T14:27:16;27.50;;;7.77;;
5543;SDS011;2795;47.652;13.128;2024-02-23T14:29:43;36.83;;;10.60;;
5543;SDS011;2795;47.652;13.128;2024-02-23T14:32:12;37.10;;;10.83;;
5543;SDS011;2795;47.652;13.128;2024-02-23T14:34:42;32.63;;;10.63;;
5543;SDS011;2795;47.652;13.128;2024-02-23T14:37:09;33.33;;;11.33;;
5543;SDS011;2795;47.652;13.128;2024-02-23T14:39:36;36.27;;;11.43;;
5543;SDS011;2795;47.652;13.128;2024-02-23T14:42:02;26.87;;;10.60;;
5543;SDS011;2795;47.652;13.128;2024-02-23T14:44:30;37.93;;;11.00;;
5543;SDS011;2795;47.652;13.128;2024-02-23T14:46:56;40.23;;;12.90;;
5543;SDS011;2795;47.652;13.128;2024-02-23T14:49:23;34.03;;;14.40;;